Time;durP1;ratioP1;P1;durP2;ratioP2;P2;SDS_P1;SDS_P2;PMS_P1;PMS_P2;Temp;Humidity;BMP_temperature;BMP_pressure;BME280_temperature;BME280_humidity;BME280_pressure;Samples;Min_cycle;Max_cycle;Signal;HPM_P1;HPM_P2
2021/10/22 00:00:06;;;;;;;18.10;3.60;;;6.50;99.90;;;7.46;100.00;100353.69;6075370;23;20093;-88
2021/10/22 00:02:32;;;;;;;20.40;4.38;;;6.50;99.90;;;7.29;100.00;100343.59;6110175;23;20015;-85
2021/10/22 00:04:58;;;;;;;15.30;3.15;;;6.40;99.90;;;7.36;100.00;100343.03;6078796;23;20093;-85
2021/10/22 00:07:24;;;;;;;11.30;3.22;;;6.40;99.90;;;7.35;100.00;100352.53;6073267;23;20021;-85
2021/10/22 00:09:50;;;;;;;15.75;3.58;;;6.40;99.90;;;7.35;100.00;100350.53;6080817;23;20014;-84
2021/10/22 00:12:16;;;;;;;17.50;3.50;;;6.40;99.90;;;7.33;100.00;100355.63;6081473;23;20006;-88
2021/10/22 00:14:42;;;;;;;17.67;3.78;;;6.30;99.90;;;7.24;100.00;100354.94;6074686;23;20102;-83
2021/10/22 00:17:09;;;;;;;19.40;3.20;;;6.30;99.90;;;7.24;100.00;100362.44;6072589;23;20020;-86
2021/10/22 00:19:36;;;;;;;21.00;3.35;;;6.30;99.90;;;7.34;100.00;100362.00;6071960;23;20006;-85
2021/10/22 00:22:03;;;;;;;15.75;3.67;;;6.30;99.90;;;7.31;100.00;100363.50;6072042;23;20025;-83
2021/10/22 00:24:29;;;;;;;10.95;3.20;;;6.30;99.90;;;7.36;100.00;100365.25;6071914;23;20021;-85
2021/10/22 00:26:55;;;;;;;16.88;3.55;;;6.40;99.90;;;7.39;100.00;100370.94;6096537;23;20495;-85
2021/10/22 00:29:21;;;;;;;20.35;3.65;;;6.40;99.90;;;7.39;100.00;100351.47;6075779;23;20010;-85
2021/10/22 00:31:47;;;;;;;16.05;3.47;;;6.50;99.90;;;7.49;100.00;100349.41;6071795;23;20499;-84
2021/10/22 00:34:13;;;;;;;13.80;3.65;;;6.50;99.90;;;7.56;99.95;100356.03;6071864;23;20073;-85
2021/10/22 00:36:39;;;;;;;17.65;3.90;;;6.50;99.90;;;7.47;99.76;100351.75;6071653;23;20049;-83
2021/10/22 00:39:05;;;;;;;16.65;3.63;;;6.50;99.90;;;7.45;99.67;100357.63;6072043;23;20013;-84
2021/10/22 00:41:32;;;;;;;16.90;3.55;;;6.50;99.90;;;7.37;99.70;100359.38;6095998;23;20010;-84
2021/10/22 00:43:59;;;;;;;18.95;3.63;;;6.50;99.90;;;7.20;100.00;100345.66;6071841;23;20014;-85
2021/10/22 00:46:29;;;;;;;13.88;3.63;;;6.40;99.90;;;7.27;100.00;100350.66;6095918;23;20046;-85
2021/10/22 00:48:57;;;;;;;13.63;3.28;;;6.40;99.90;;;7.39;100.00;100347.88;6097680;23;20340;-84
2021/10/22 00:51:27;;;;;;;15.27;3.30;;;6.40;99.90;;;7.47;99.99;100352.56;6072458;23;20018;-85
2021/10/22 00:53:53;;;;;;;19.75;3.97;;;6.50;99.90;;;7.49;100.00;100350.22;6071859;23;20014;-85
2021/10/22 00:56:19;;;;;;;22.83;4.45;;;6.60;99.90;;;7.59;99.86;100352.56;6074886;23;20427;-81
2021/10/22 00:58:46;;;;;;;17.98;4.47;;;6.60;99.90;;;7.61;99.71;100347.47;6048876;23;20016;-81
2021/10/22 01:01:12;;;;;;;14.68;3.58;;;6.60;99.90;;;7.58;99.82;100342.59;6073156;23;20011;-83
2021/10/22 01:03:38;;;;;;;23.35;3.95;;;6.60;99.90;;;7.60;99.61;100345.03;6073462;23;20006;-84
2021/10/22 01:06:05;;;;;;;14.98;3.10;;;6.60;99.90;;;7.58;99.24;100345.38;6098046;23;20069;-82
2021/10/22 01:08:34;;;;;;;12.52;3.30;;;6.70;99.90;;;7.59;99.69;100346.19;6072986;23;20407;-83
2021/10/22 01:11:02;;;;;;;14.38;3.17;;;6.60;99.90;;;7.57;99.54;100338.22;6073860;23;20011;-83
2021/10/22 01:13:31;;;;;;;16.00;4.57;;;6.70;99.90;;;7.62;99.29;100357.44;6097579;23;20017;-84
2021/10/22 01:15:57;;;;;;;16.77;3.60;;;6.70;99.90;;;7.67;99.60;100360.00;6079180;23;20325;-84
2021/10/22 01:18:25;;;;;;;16.55;3.88;;;6.70;99.90;;;7.73;99.44;100346.69;6076676;23;20014;-81
2021/10/22 01:21:05;;;;;;;15.43;3.65;;;6.80;99.90;;;7.78;98.99;100354.78;6101864;23;20002;-82
2021/10/22 01:23:33;;;;;;;16.10;3.95;;;6.80;99.90;;;7.79;98.90;100348.88;6078040;23;20388;-82
2021/10/22 01:25:59;;;;;;;16.95;3.58;;;6.80;99.90;;;7.89;98.13;100342.88;6078829;23;20010;-82
2021/10/22 01:28:27;;;;;;;17.05;3.95;;;6.90;99.90;;;7.97;98.41;100355.84;6079073;23;20017;-84
2021/10/22 01:30:53;;;;;;;22.98;5.07;;;7.00;99.90;;;7.99;97.60;100344.38;6100911;23;20011;-83
2021/10/22 01:33:21;;;;;;;12.35;3.33;;;7.00;99.90;;;7.98;97.69;100356.66;6084755;23;20015;-81
2021/10/22 01:35:50;;;;;;;17.58;3.38;;;7.00;99.90;;;7.92;97.95;100350.50;6105474;23;20145;-85
2021/10/22 01:38:21;;;;;;;14.40;3.10;;;7.00;99.90;;;7.95;97.74;100347.03;6078750;23;20006;-83
2021/10/22 01:40:55;;;;;;;15.98;3.17;;;7.00;99.90;;;7.87;98.05;100347.94;6110495;23;20022;-82
2021/10/22 01:43:29;;;;;;;12.40;2.92;;;7.10;99.90;;;7.99;97.34;100349.13;6086095;23;20041;-84
2021/10/22 01:45:55;;;;;;;16.38;2.75;;;7.10;99.90;;;8.01;96.80;100346.78;6109724;23;20006;-84
2021/10/22 01:48:21;;;;;;;11.98;3.22;;;7.10;99.90;;;7.95;96.19;100354.56;6080740;23;20014;-84
2021/10/22 01:50:48;;;;;;;10.75;2.67;;;7.00;99.90;;;7.99;95.54;100349.94;6106187;23;20014;-84
2021/10/22 01:53:19;;;;;;;10.10;2.42;;;7.00;99.90;;;7.83;96.78;100343.44;6081087;23;20014;-83
2021/10/22 01:55:46;;;;;;;9.13;2.35;;;7.00;99.90;;;7.82;96.54;100348.19;6108198;23;20060;-83
2021/10/22 01:58:13;;;;;;;12.07;3.17;;;6.90;99.90;;;7.83;96.53;100354.56;6104028;23;20006;-82
2021/10/22 02:00:39;;;;;;;10.18;2.67;;;6.90;99.90;;;7.80;96.85;100344.13;6110719;23;20062;-82
2021/10/22 02:03:05;;;;;;;12.27;2.45;;;6.90;99.90;;;7.81;96.07;100340.19;6110750;23;20020;-83
2021/10/22 02:05:34;;;;;;;10.65;1.88;;;7.00;99.90;;;7.82;95.90;100342.63;6109429;23;20010;-81
2021/10/22 02:08:00;;;;;;;9.88;2.00;;;6.90;99.90;;;7.82;96.00;100339.03;6079202;23;20014;-84
2021/10/22 02:10:26;;;;;;;12.45;2.33;;;6.90;99.90;;;7.76;96.06;100337.66;6108001;23;20038;-83
2021/10/22 02:12:52;;;;;;;14.30;2.72;;;6.80;99.90;;;7.67;96.30;100329.44;6103500;23;20042;-83
2021/10/22 02:15:17;;;;;;;7.18;2.20;;;6.80;99.90;;;7.65;96.50;100328.13;6080350;23;20037;-83
2021/10/22 02:17:44;;;;;;;11.23;2.55;;;6.70;99.90;;;7.51;97.46;100322.94;6078171;23;20010;-84
2021/10/22 02:20:12;;;;;;;11.35;1.98;;;6.70;99.90;;;7.56;96.97;100330.22;6106305;23;20010;-81
2021/10/22 02:22:38;;;;;;;14.15;3.40;;;6.70;99.90;;;7.56;97.23;100330.22;6109470;23;20348;-83
2021/10/22 02:25:07;;;;;;;10.52;2.83;;;6.70;99.90;;;7.53;97.42;100331.72;6105799;23;20018;-83
2021/10/22 02:27:34;;;;;;;13.93;2.53;;;6.60;99.90;;;7.42;98.03;100336.09;6108054;23;20007;-84
2021/10/22 02:30:02;;;;;;;12.40;2.67;;;6.60;99.90;;;7.41;98.10;100328.94;6103905;23;20006;-84
2021/10/22 02:32:28;;;;;;;9.13;2.10;;;6.60;99.90;;;7.46;98.23;100336.22;6109222;23;20058;-83
2021/10/22 02:34:54;;;;;;;15.38;2.72;;;6.60;99.90;;;7.47;97.91;100326.72;6108575;23;20029;-81
2021/10/22 02:37:20;;;;;;;8.82;3.00;;;6.50;99.90;;;7.41;98.11;100323.38;6081063;23;20011;-86
2021/10/22 02:39:45;;;;;;;14.30;3.60;;;6.50;99.90;;;7.37;98.52;100326.03;6108916;23;20026;-85
2021/10/22 02:42:12;;;;;;;18.55;3.05;;;6.50;99.90;;;7.38;98.51;100335.97;6075822;23;20010;-83
2021/10/22 02:44:37;;;;;;;14.55;4.05;;;6.50;99.90;;;7.37;98.61;100339.09;6091685;23;20069;-83
2021/10/22 02:47:04;;;;;;;17.92;2.78;;;6.50;99.90;;;7.36;98.54;100320.78;6078873;23;20033;-83
2021/10/22 02:49:30;;;;;;;10.50;2.55;;;6.50;99.90;;;7.31;99.04;100329.38;6104903;23;20014;-81
2021/10/22 02:51:56;;;;;;;9.55;2.92;;;6.40;99.90;;;7.30;98.72;100333.28;6103406;23;20006;-81
2021/10/22 02:54:23;;;;;;;14.38;2.67;;;6.40;99.90;;;7.23;99.01;100333.84;6101458;23;20002;-83
2021/10/22 02:56:49;;;;;;;13.63;2.25;;;6.30;99.90;;;7.19;99.45;100332.91;6107070;23;20085;-84
2021/10/22 02:59:15;;;;;;;11.25;2.90;;;6.30;99.90;;;7.24;99.16;100326.34;6107247;23;20018;-84
2021/10/22 03:01:42;;;;;;;12.18;3.13;;;6.30;99.90;;;7.27;98.79;100333.97;6109332;23;20021;-81
2021/10/22 03:04:10;;;;;;;15.50;2.72;;;6.40;99.90;;;7.37;98.48;100322.44;6102169;23;20011;-84
2021/10/22 03:06:36;;;;;;;17.63;3.58;;;6.40;99.90;;;7.42;98.62;100322.19;6112557;23;20006;-84
2021/10/22 03:09:03;;;;;;;18.60;2.60;;;6.50;99.90;;;7.50;98.01;100329.63;6086361;23;20037;-84
2021/10/22 03:11:29;;;;;;;16.48;3.25;;;6.50;99.90;;;7.50;97.53;100329.63;6113695;23;20088;-81
2021/10/22 03:13:55;;;;;;;13.13;2.50;;;6.60;99.90;;;7.45;96.65;100320.72;6111747;23;20010;-84
2021/10/22 03:16:22;;;;;;;20.70;3.50;;;6.60;99.90;;;7.45;96.58;100329.06;6109837;23;20013;-84
2021/10/22 03:18:48;;;;;;;10.80;2.58;;;6.50;99.90;;;7.32;96.70;100325.44;6111712;23;20010;-84
2021/10/22 03:21:16;;;;;;;12.48;2.40;;;6.50;99.90;;;7.32;96.90;100317.09;6112829;23;20003;-82
2021/10/22 03:23:42;;;;;;;10.18;2.35;;;6.50;99.90;;;7.31;96.78;100321.84;6082959;23;20007;-83
2021/10/22 03:26:08;;;;;;;16.30;3.25;;;6.50;99.90;;;7.33;96.23;100321.47;6111025;23;20041;-84
2021/10/22 03:28:34;;;;;;;13.25;3.05;;;6.40;99.90;;;7.34;96.10;100323.13;6111437;23;20003;-81
2021/10/22 03:31:00;;;;;;;10.75;1.83;;;6.50;99.90;;;7.33;95.57;100316.75;6085404;23;20025;-82
2021/10/22 03:33:26;;;;;;;8.65;2.25;;;6.40;99.90;;;7.27;95.49;100308.97;6079839;23;20070;-81
2021/10/22 03:35:51;;;;;;;13.23;2.80;;;6.40;99.90;;;7.21;95.34;100305.63;6101593;23;20067;-84
2021/10/22 03:38:17;;;;;;;12.02;2.70;;;6.30;99.90;;;7.13;95.75;100305.69;6112107;23;20010;-84
2021/10/22 03:40:43;;;;;;;10.63;2.63;;;6.30;99.90;;;7.05;96.10;100301.06;6107723;23;20492;-84
2021/10/22 03:43:09;;;;;;;13.73;2.97;;;6.30;99.90;;;7.10;95.72;100296.09;6106211;23;20006;-85
2021/10/22 03:45:35;;;;;;;13.00;3.38;;;6.20;99.90;;;7.14;95.52;100294.25;6104505;23;20440;-80
2021/10/22 03:48:01;;;;;;;11.07;2.92;;;6.20;99.90;;;7.17;94.95;100292.75;6111599;23;20026;-83
2021/10/22 03:50:27;;;;;;;11.55;2.85;;;6.20;99.90;;;7.18;94.46;100297.16;6080691;23;20018;-85
2021/10/22 03:52:53;;;;;;;13.52;2.72;;;6.20;99.90;;;7.10;94.25;100286.94;6078145;23;20508;-83
2021/10/22 03:55:19;;;;;;;12.85;2.53;;;6.20;99.90;;;7.13;94.27;100294.59;6109299;23;20010;-83
2021/10/22 03:57:45;;;;;;;12.63;2.53;;;6.20;99.90;;;7.14;93.67;100293.44;6030546;23;1081548;-86
2021/10/22 04:00:12;;;;;;;11.07;2.40;;;6.20;99.90;;;7.14;92.99;100291.47;6076087;23;20014;-85
2021/10/22 04:02:39;;;;;;;11.57;2.65;;;6.20;99.90;;;7.10;92.79;100292.50;6101918;23;20013;-86
2021/10/22 04:05:07;;;;;;;16.30;2.42;;;6.20;99.90;;;7.11;92.71;100294.94;6100756;23;20458;-83
2021/10/22 04:07:35;;;;;;;11.75;2.75;;;6.30;99.90;;;7.14;92.44;100297.03;6107979;23;20010;-86
2021/10/22 04:10:07;;;;;;;15.30;3.55;;;6.20;99.90;;;7.14;92.18;100288.69;6087135;23;20093;-85
2021/10/22 04:12:34;;;;;;;7.68;2.80;;;6.30;99.90;;;7.22;91.67;100290.59;6093863;23;20002;-83
2021/10/22 04:15:01;;;;;;;12.50;2.38;;;6.30;99.90;;;7.20;91.81;100300.41;6118020;23;20068;-84
2021/10/22 04:17:27;;;;;;;13.82;2.40;;;6.30;99.90;;;7.17;91.43;100292.75;6083047;23;20073;-84
2021/10/22 04:19:53;;;;;;;7.55;2.47;;;6.30;99.90;;;7.18;91.44;100292.41;6103619;23;20025;-82
2021/10/22 04:22:20;;;;;;;9.70;2.50;;;6.20;99.90;;;7.07;91.34;100282.06;6079447;23;20010;-85
2021/10/22 04:24:46;;;;;;;10.07;2.75;;;6.30;99.90;;;7.12;91.03;100291.03;6105465;23;20059;-81
2021/10/22 04:27:12;;;;;;;14.48;3.35;;;6.30;99.90;;;7.19;90.44;100298.78;6104610;23;20010;-83
2021/10/22 04:29:38;;;;;;;15.30;2.47;;;6.30;99.90;;;7.19;90.17;100293.25;6105113;23;20062;-82
2021/10/22 04:32:05;;;;;;;8.82;1.85;;;6.30;99.90;;;7.14;90.19;100291.47;6103251;23;20022;-84
2021/10/22 04:34:31;;;;;;;11.18;2.17;;;6.30;99.90;;;7.14;90.42;100282.31;6103113;23;20003;-82
2021/10/22 04:37:23;;;;;;;13.70;2.03;;;6.30;99.90;;;7.09;90.21;100288.13;6079549;23;20065;-83
2021/10/22 04:42:43;;;;;;;16.13;2.55;;;6.30;99.90;;;7.09;89.36;100283.38;6101965;23;20025;-84
2021/10/22 04:45:11;;;;;;;11.50;2.42;;;6.30;99.90;;;7.08;89.43;100278.97;6103584;23;20010;-83
2021/10/22 04:47:39;;;;;;;12.55;2.60;;;6.40;99.90;;;7.05;89.74;100282.44;6101457;23;20017;-83
2021/10/22 04:50:10;;;;;;;15.32;2.40;;;6.30;99.90;;;7.12;89.55;100284.66;6103953;23;20015;-80
2021/10/22 04:52:40;;;;;;;12.52;2.13;;;6.30;99.90;;;7.13;89.40;100287.06;6074004;23;20021;-82
2021/10/22 04:55:09;;;;;;;15.38;3.40;;;6.20;99.90;;;7.08;89.04;100286.47;6100507;23;20006;-82
2021/10/22 04:57:36;;;;;;;14.77;2.67;;;6.20;99.90;;;7.18;88.98;100294.38;6076724;23;20440;-84
2021/10/22 05:00:07;;;;;;;16.08;2.20;;;6.30;99.90;;;7.10;88.68;100284.97;6098106;23;20041;-85
2021/10/22 05:02:35;;;;;;;9.10;2.25;;;6.20;99.90;;;7.05;88.95;100293.53;6099779;23;20010;-83
2021/10/22 05:05:01;;;;;;;7.68;2.00;;;6.20;99.90;;;7.06;88.92;100299.91;6075653;23;20014;-81
2021/10/22 05:07:27;;;;;;;12.27;3.72;;;6.20;99.90;;;7.07;89.00;100301.50;6074450;23;20479;-83
2021/10/22 05:09:52;;;;;;;8.00;2.13;;;6.20;99.90;;;7.05;88.37;100314.94;6104485;23;20006;-83
2021/10/22 05:12:18;;;;;;;10.05;2.58;;;6.20;99.90;;;7.04;88.55;100318.84;6076912;23;20018;-83
2021/10/22 05:14:44;;;;;;;8.70;2.20;;;6.20;99.90;;;7.12;88.29;100316.00;6077813;23;20017;-83
2021/10/22 05:17:10;;;;;;;10.77;2.40;;;6.20;99.90;;;7.19;88.35;100318.22;6075438;23;20352;-82
2021/10/22 05:19:36;;;;;;;12.82;2.45;;;6.20;99.90;;;7.27;88.09;100328.41;6084446;23;20010;-84
2021/10/22 05:22:02;;;;;;;9.70;2.33;;;6.40;99.90;;;7.39;87.16;100322.88;6100317;23;20400;-83
2021/10/22 05:24:28;;;;;;;15.00;3.25;;;6.40;99.90;;;7.37;86.69;100320.47;6100640;23;20010;-84
2021/10/22 05:26:53;;;;;;;12.18;2.70;;;6.50;99.90;;;7.46;87.03;100316.75;6104468;23;20021;-83
2021/10/22 05:29:19;;;;;;;15.40;2.80;;;6.50;99.90;;;7.52;85.99;100316.19;6079074;23;20007;-83
2021/10/22 05:31:45;;;;;;;10.63;2.72;;;6.60;99.90;;;7.60;85.68;100325.59;6077422;23;20010;-85
2021/10/22 05:34:11;;;;;;;8.38;2.30;;;6.70;99.90;;;7.65;85.61;100330.91;6103298;23;20003;-84
2021/10/22 05:36:37;;;;;;;8.63;2.65;;;6.70;99.90;;;7.72;85.47;100328.38;6078176;23;20073;-82
2021/10/22 05:39:04;;;;;;;9.60;1.92;;;6.80;99.90;;;7.71;84.67;100326.75;6118299;23;20002;-84
2021/10/22 05:41:30;;;;;;;14.23;2.00;;;6.80;99.90;;;7.73;84.46;100305.81;6080779;23;20015;-82
2021/10/22 05:43:56;;;;;;;15.05;2.42;;;6.80;99.90;;;7.74;84.31;100309.38;6106508;23;20129;-86
2021/10/22 05:46:22;;;;;;;14.35;3.17;;;6.80;99.90;;;7.67;84.52;100309.16;6106754;23;20516;-84
2021/10/22 05:48:48;;;;;;;14.10;2.83;;;6.80;99.90;;;7.68;84.67;100303.22;6080923;23;20556;-82
2021/10/22 05:51:15;;;;;;;15.48;3.28;;;6.80;99.90;;;7.57;84.66;100304.06;6104416;23;20014;-81
2021/10/22 05:53:41;;;;;;;13.48;3.20;;;6.70;99.90;;;7.54;84.61;100301.97;6107190;23;20015;-80
2021/10/22 05:56:10;;;;;;;15.82;2.50;;;6.70;99.90;;;7.58;84.83;100297.34;6085971;23;20010;-82
2021/10/22 05:58:36;;;;;;;9.70;2.67;;;6.60;99.90;;;7.56;84.72;100299.63;6110176;23;20003;-85
2021/10/22 06:01:05;;;;;;;11.00;2.20;;;6.60;99.90;;;7.42;85.61;100289.66;6111924;23;20029;-85
2021/10/22 06:03:31;;;;;;;12.65;2.30;;;6.60;99.90;;;7.36;85.65;100299.38;6087864;23;20034;-85
2021/10/22 06:05:57;;;;;;;9.93;2.67;;;6.50;99.90;;;7.40;85.45;100289.22;6088898;23;20062;-83
2021/10/22 06:08:23;;;;;;;15.07;3.20;;;6.60;99.90;;;7.39;85.45;100284.81;6122507;23;20034;-81
2021/10/22 06:10:49;;;;;;;9.68;2.47;;;6.50;99.90;;;7.40;85.51;100286.44;6122944;23;20014;-81
2021/10/22 06:13:16;;;;;;;17.20;4.22;;;6.60;99.90;;;7.48;85.67;100279.13;6123715;23;20006;-84
2021/10/22 06:16:01;;;;;;;15.32;2.13;;;6.60;99.90;;;7.51;85.32;100269.31;6116033;23;20014;-81
2021/10/22 06:18:27;;;;;;;10.00;2.20;;;6.60;99.90;;;7.50;85.53;100274.06;6085077;23;20034;-83
2021/10/22 06:20:57;;;;;;;11.98;2.67;;;6.60;99.90;;;7.54;85.79;100275.00;6085394;23;20351;-81
2021/10/22 06:26:08;;;;;;;9.80;1.92;;;6.60;99.90;;;7.51;85.91;100267.34;6111326;23;20042;-81
2021/10/22 06:28:35;;;;;;;15.98;2.50;;;6.60;99.90;;;7.48;85.97;100268.00;6087507;23;20010;-82
2021/10/22 06:31:01;;;;;;;12.32;2.65;;;6.60;99.90;;;7.57;85.81;100260.41;6114502;23;20002;-84
2021/10/22 06:33:27;;;;;;;11.00;2.85;;;6.70;99.90;;;7.69;85.55;100273.47;6104805;23;20010;-82
2021/10/22 06:35:54;;;;;;;12.00;2.60;;;6.70;99.90;;;7.64;85.84;100268.16;6102621;23;20434;-83
2021/10/22 06:38:24;;;;;;;8.50;2.20;;;6.70;99.90;;;7.73;85.46;100266.06;6103686;23;20005;-82
2021/10/22 06:40:53;;;;;;;10.75;2.25;;;6.80;99.90;;;7.89;85.11;100267.78;6103392;23;20525;-81
2021/10/22 06:43:21;;;;;;;10.95;2.30;;;6.90;99.90;;;7.99;84.87;100265.69;6102444;23;20018;-82
2021/10/22 06:45:49;;;;;;;12.15;3.08;;;7.00;99.90;;;8.08;84.14;100269.97;6077468;23;20037;-82
2021/10/22 06:48:15;;;;;;;11.65;2.45;;;7.20;99.90;;;8.15;83.49;100263.81;6100618;23;20010;-81
2021/10/22 06:50:42;;;;;;;13.43;2.80;;;7.20;99.90;;;8.25;83.25;100286.38;6076352;23;20022;-82
2021/10/22 06:53:08;;;;;;;11.57;2.78;;;7.30;99.90;;;8.30;82.47;100282.56;6077850;23;20458;-82
2021/10/22 06:55:35;;;;;;;10.75;2.67;;;7.40;99.90;;;8.53;82.04;100285.63;6103342;23;20007;-81
2021/10/22 06:58:03;;;;;;;9.80;2.95;;;7.50;99.90;;;8.63;81.93;100280.38;6072785;23;20034;-81
2021/10/22 07:00:29;;;;;;;12.35;2.70;;;7.70;99.90;;;8.87;81.55;100271.09;6075070;23;20120;-84
2021/10/22 07:02:56;;;;;;;15.02;2.95;;;7.90;99.90;;;9.16;79.99;100270.72;6075008;23;20006;-85
2021/10/22 07:08:02;;;;;;;10.63;3.40;;;8.30;99.90;;;9.16;79.90;100273.50;6100797;23;20015;-81
2021/10/22 07:10:32;;;;;;;14.27;2.75;;;8.30;99.90;;;9.17;80.04;100279.88;6101973;23;20017;-80
2021/10/22 07:12:59;;;;;;;12.15;2.75;;;8.20;99.90;;;8.96;80.88;100277.31;6080872;23;20022;-83
2021/10/22 07:15:28;;;;;;;10.35;2.20;;;8.00;99.90;;;8.84;80.92;100292.13;6082535;23;20006;-79
2021/10/22 07:17:59;;;;;;;9.35;2.47;;;8.00;99.90;;;8.82;81.24;100297.25;6084007;23;20010;-84
2021/10/22 07:20:27;;;;;;;12.38;2.22;;;7.90;99.90;;;8.76;81.17;100292.28;6079484;23;20366;-80
2021/10/22 07:23:02;;;;;;;12.25;2.22;;;7.90;99.90;;;8.93;81.03;100305.88;6099962;23;20412;-83
2021/10/22 07:25:30;;;;;;;9.38;2.10;;;8.00;99.90;;;8.89;81.64;100299.41;6101970;23;20018;-83
2021/10/22 07:27:56;;;;;;;11.13;2.70;;;7.90;99.90;;;8.82;81.17;100299.22;6084094;23;20021;-83
2021/10/22 07:30:23;;;;;;;11.50;2.58;;;7.90;99.90;;;8.95;81.69;100300.78;6083623;23;20454;-81
2021/10/22 07:32:49;;;;;;;12.07;2.65;;;8.00;99.90;;;8.89;81.11;100289.06;6106942;23;20017;-79
2021/10/22 07:35:16;;;;;;;11.30;2.67;;;8.00;99.90;;;8.93;81.09;100301.13;6076610;23;20437;-81
2021/10/22 07:37:43;;;;;;;10.45;3.25;;;8.00;99.90;;;9.11;80.52;100303.59;6102356;23;20013;-81
2021/10/22 07:40:10;;;;;;;8.90;2.53;;;8.10;99.90;;;9.18;80.79;100303.78;6104087;23;20006;-83
2021/10/22 07:42:37;;;;;;;14.20;2.90;;;8.20;99.90;;;9.18;80.51;100314.94;6076818;23;20010;-79
2021/10/22 07:45:06;;;;;;;13.32;3.03;;;8.30;99.90;;;9.15;80.18;100305.28;6077741;23;20002;-83
2021/10/22 07:47:36;;;;;;;14.95;2.88;;;8.30;99.90;;;9.12;80.96;100316.38;6101491;23;20006;-81
2021/10/22 07:50:07;;;;;;;9.98;2.42;;;8.20;99.90;;;9.39;80.66;100316.31;6109835;23;19994;-81
2021/10/22 07:52:34;;;;;;;12.00;2.63;;;8.40;99.90;;;9.51;79.59;100309.84;6091029;23;20010;-79
2021/10/22 07:55:01;;;;;;;8.43;2.67;;;8.50;99.90;;;9.63;79.03;100309.78;6100203;23;20337;-84
2021/10/22 07:57:29;;;;;;;12.73;2.30;;;8.60;99.90;;;9.71;79.09;100305.97;6099246;23;20003;-80
2021/10/22 08:00:00;;;;;;;10.38;2.30;;;8.70;99.90;;;9.95;77.56;100313.34;6074391;23;20057;-83
2021/10/22 08:02:27;;;;;;;10.32;2.60;;;9.00;99.90;;;10.31;76.04;100317.78;6097353;23;20049;-82
2021/10/22 08:04:53;;;;;;;10.35;2.15;;;9.30;99.90;;;10.63;74.93;100310.91;6099897;23;20397;-82
2021/10/22 08:07:30;;;;;;;9.23;2.53;;;9.60;99.90;;;10.89;73.67;100316.66;6099579;23;20006;-81
2021/10/22 08:10:00;;;;;;;14.07;3.33;;;9.80;99.90;;;10.91;73.70;100317.13;6074565;23;20021;-81
2021/10/22 08:12:28;;;;;;;11.73;2.20;;;9.90;99.90;;;11.02;73.12;100315.31;6074585;23;20014;-84
2021/10/22 08:14:53;;;;;;;10.35;2.33;;;9.90;99.90;;;10.42;74.99;100328.03;6074267;23;20428;-83
2021/10/22 08:17:21;;;;;;;14.88;2.58;;;9.60;99.90;;;10.28;76.51;100327.69;6099547;23;20077;-80
2021/10/22 08:19:58;;;;;;;12.75;2.78;;;9.40;99.90;;;10.23;77.54;100335.56;6074179;23;20014;-82
2021/10/22 08:22:29;;;;;;;10.65;2.83;;;9.30;99.90;;;10.29;77.59;100325.72;6099448;23;20006;-82
2021/10/22 08:25:10;;;;;;;10.52;2.63;;;9.30;99.90;;;10.23;77.55;100330.78;6076980;23;19995;-81
2021/10/22 08:27:47;;;;;;;10.13;2.35;;;9.30;99.90;;;10.28;77.72;100324.09;6074336;23;20065;-82
2021/10/22 08:30:25;;;;;;;7.55;1.92;;;9.30;99.90;;;10.52;77.17;100335.84;6101000;23;20006;-80
2021/10/22 08:32:57;;;;;;;12.77;3.22;;;9.40;99.90;;;10.24;77.91;100331.59;6100717;23;20054;-80
2021/10/22 08:35:28;;;;;;;12.43;2.33;;;9.30;99.90;;;10.21;78.35;100326.75;6099327;23;20012;-82
2021/10/22 08:37:56;;;;;;;10.65;2.65;;;9.30;99.90;;;10.12;78.87;100332.47;6073817;23;20025;-81
2021/10/22 08:40:25;;;;;;;12.27;2.45;;;9.20;99.90;;;10.15;79.26;100344.91;6098919;23;20013;-81
2021/10/22 08:42:51;;;;;;;14.48;3.08;;;9.20;99.90;;;10.16;79.68;100344.56;6099708;23;20054;-81
2021/10/22 08:45:19;;;;;;;10.93;3.00;;;9.20;99.90;;;10.15;79.60;100342.13;6098981;23;20112;-82
2021/10/22 08:47:46;;;;;;;10.50;2.35;;;9.20;99.90;;;10.19;79.78;100348.59;6099244;23;20045;-82
2021/10/22 08:50:20;;;;;;;12.57;2.55;;;9.20;99.90;;;10.02;80.13;100342.19;6073699;23;20021;-84
2021/10/22 08:52:49;;;;;;;10.90;3.58;;;9.20;99.90;;;10.17;80.05;100345.38;6074640;23;20011;-82
2021/10/22 08:55:18;;;;;;;6.93;2.50;;;9.20;99.90;;;10.11;80.42;100356.00;6075015;23;20013;-86
2021/10/22 08:57:48;;;;;;;11.27;2.30;;;9.20;99.90;;;10.26;80.09;100340.41;6098197;23;20068;-83
2021/10/22 09:00:21;;;;;;;13.23;2.72;;;9.30;99.90;;;10.34;80.26;100331.03;6073265;23;20006;-82
2021/10/22 09:02:49;;;;;;;12.98;2.38;;;9.30;99.90;;;10.12;79.46;100334.44;6104584;23;20428;-79
2021/10/22 09:05:26;;;;;;;12.35;2.20;;;9.30;99.90;;;10.17;80.53;100342.59;6105030;23;20057;-81
2021/10/22 09:07:58;;;;;;;12.48;2.25;;;9.20;99.90;;;9.96;80.37;100335.28;6076919;23;20010;-81
2021/10/22 09:10:35;;;;;;;11.40;2.08;;;9.20;99.90;;;10.04;80.59;100345.47;6072099;23;20018;-81
2021/10/22 09:13:08;;;;;;;13.65;2.72;;;9.20;99.90;;;9.91;80.90;100349.53;6099546;23;20017;-82
2021/10/22 09:15:42;;;;;;;11.27;2.28;;;9.10;99.90;;;10.38;80.63;100355.06;6097421;23;20006;-81
2021/10/22 09:18:24;;;;;;;9.65;2.17;;;9.30;99.90;;;10.49;80.31;100366.47;6098633;23;20006;-81
2021/10/22 09:20:58;;;;;;;12.70;2.83;;;9.40;99.90;;;10.73;79.55;100360.63;6072520;23;20002;-81
2021/10/22 09:23:41;;;;;;;7.65;1.90;;;9.70;99.90;;;10.44;79.54;100347.19;6072535;23;20314;-82
2021/10/22 09:26:29;;;;;;;11.52;2.20;;;9.60;99.90;;;10.46;82.21;100354.06;6072831;23;20068;-78
2021/10/22 09:28:55;;;;;;;10.40;1.90;;;9.50;99.90;;;10.10;81.99;100353.53;6098107;23;20081;-79
2021/10/22 09:31:23;;;;;;;19.30;3.38;;;9.30;99.90;;;10.19;81.68;100343.84;6098816;23;20088;-80
2021/10/22 09:34:02;;;;;;;14.90;2.78;;;9.30;99.90;;;10.38;81.93;100343.06;6098509;23;20010;-80
2021/10/22 09:36:44;;;;;;;10.68;2.35;;;9.40;99.90;;;10.77;79.23;100341.94;6072602;23;20010;-80
2021/10/22 09:39:21;;;;;;;8.25;2.85;;;9.70;99.90;;;11.34;78.71;100351.47;6098445;23;20018;-83
2021/10/22 09:42:01;;;;;;;12.05;2.60;;;10.10;99.90;;;11.55;76.05;100349.91;6097610;23;20441;-82
2021/10/22 09:44:37;;;;;;;12.73;2.42;;;10.40;99.90;;;11.24;75.57;100350.09;6097614;23;20054;-83
2021/10/22 09:47:06;;;;;;;8.73;1.77;;;10.20;99.90;;;11.03;78.03;100347.69;6096087;23;20026;-82
2021/10/22 09:49:40;;;;;;;7.47;2.03;;;10.00;99.90;;;11.50;75.25;100358.59;6097804;23;20088;-83
2021/10/22 09:52:26;;;;;;;7.15;1.95;;;10.30;99.90;;;12.01;74.66;100347.09;6071493;23;20433;-79
2021/10/22 09:55:19;;;;;;;12.60;2.10;;;10.80;99.90;;;12.60;73.10;100352.00;6097378;23;20002;-81
2021/10/22 09:58:05;;;;;;;10.18;1.98;;;11.30;99.90;;;12.19;72.18;100355.81;6095560;23;20088;-81
2021/10/22 10:00:35;;;;;;;9.90;2.30;;;11.20;99.90;;;12.33;73.52;100368.00;6096512;23;20022;-82
2021/10/22 10:03:06;;;;;;;11.77;2.00;;;11.20;99.90;;;12.63;71.16;100363.28;6098122;23;20425;-83
2021/10/22 10:05:32;;;;;;;6.35;1.90;;;11.50;99.90;;;12.87;69.79;100345.19;6097506;23;20457;-84
2021/10/22 10:08:02;;;;;;;6.88;2.35;;;11.80;99.90;;;13.20;69.11;100356.44;6083691;23;20007;-84
2021/10/22 10:10:28;;;;;;;7.63;2.08;;;12.00;99.90;;;13.35;68.58;100365.00;6099530;23;20006;-81
2021/10/22 10:12:55;;;;;;;10.82;2.33;;;12.20;99.90;;;13.22;69.25;100358.06;6071441;23;20015;-80
2021/10/22 10:15:20;;;;;;;11.10;2.25;;;12.20;99.90;;;13.33;68.76;100350.56;6094951;23;20007;-81
2021/10/22 10:17:50;;;;;;;7.85;2.00;;;12.30;99.90;;;13.53;68.17;100349.97;6095524;23;20006;-80
2021/10/22 10:20:30;;;;;;;10.52;1.88;;;12.50;99.90;;;13.76;67.35;100343.38;6071551;23;20017;-82
2021/10/22 10:22:57;;;;;;;9.52;1.80;;;12.50;99.90;;;13.95;66.03;100332.72;6071854;23;20010;-82
2021/10/22 10:25:25;;;;;;;14.00;3.35;;;12.80;99.90;;;13.87;66.20;100333.84;6095985;23;20010;-81
2021/10/22 10:27:56;;;;;;;8.35;2.03;;;12.80;99.90;;;14.09;65.81;100330.06;6096831;23;20121;-80
2021/10/22 10:30:33;;;;;;;9.45;2.17;;;12.90;99.90;;;13.74;65.20;100349.41;6094664;23;20061;-82